Time;durP1;ratioP1;P1;durP2;ratioP2;P2;SDS_P1;SDS_P2;PMS_P1;PMS_P2;Temp;Humidity;BMP_temperature;BMP_pressure;BME280_temperature;BME280_humidity;BME280_pressure;Samples;Min_cycle;Max_cycle;Signal;HPM_P1;HPM_P2
2021/09/12 00:01:23;;;;;;;11.47;6.93;;;;;;;;;;5022750;28;20235;-81
2021/09/12 00:03:49;;;;;;;10.73;7.40;;;;;;;;;;5044887;28;20218;-81
2021/09/12 00:06:15;;;;;;;9.60;6.73;;;15.60;1.00;;;;;;5033554;28;20194;-81
2021/09/12 00:08:40;;;;;;;10.30;7.10;;;15.50;1.00;;;;;;5033720;28;20300;-80
2021/09/12 00:11:07;;;;;;;12.10;7.03;;;;;;;;;;5019439;28;20231;-81
2021/09/12 00:13:34;;;;;;;13.03;7.17;;;;;;;;;;5027183;28;20217;-81
2021/09/12 00:16:00;;;;;;;12.33;6.80;;;;;;;;;;5016421;28;20197;-81
2021/09/12 00:18:26;;;;;;;9.37;6.63;;;;;;;;;;5041694;28;20626;-81
2021/09/12 00:20:52;;;;;;;9.43;6.10;;;15.40;1.00;;;;;;5039242;28;20194;-81
2021/09/12 00:23:17;;;;;;;10.13;6.13;;;15.40;1.00;;;;;;5034164;28;20195;-81
2021/09/12 00:25:44;;;;;;;10.27;7.17;;;15.40;1.00;;;;;;5022716;28;20200;-81
2021/09/12 00:28:10;;;;;;;9.67;6.73;;;;;;;;;;5024463;28;20190;-80
2021/09/12 00:30:36;;;;;;;9.97;6.93;;;;;;;;;;5033658;28;20206;-81
2021/09/12 00:33:02;;;;;;;8.27;6.37;;;15.30;1.00;;;;;;5042452;28;20228;-81
2021/09/12 00:35:27;;;;;;;9.40;6.70;;;15.30;1.00;;;;;;5018962;28;20190;-81
2021/09/12 00:37:53;;;;;;;12.73;6.73;;;15.40;1.00;;;;;;5034444;28;20712;-81
2021/09/12 00:40:21;;;;;;;14.30;6.73;;;15.40;1.00;;;;;;5027457;28;20178;-81
2021/09/12 00:42:47;;;;;;;8.70;6.33;;;;;;;;;;5025488;28;20198;-81
2021/09/12 00:45:13;;;;;;;9.37;6.37;;;;;;;;;;5028501;28;20192;-81
2021/09/12 00:47:39;;;;;;;11.33;7.27;;;;;;;;;;5037263;28;20195;-81
2021/09/12 00:50:05;;;;;;;16.13;6.77;;;;;;;;;;5037803;28;20187;-81
2021/09/12 00:52:33;;;;;;;11.80;7.27;;;15.40;1.00;;;;;;5040014;28;20271;-81
2021/09/12 00:55:01;;;;;;;10.60;6.60;;;15.40;1.00;;;;;;5039591;28;20190;-81
2021/09/12 00:57:27;;;;;;;10.03;6.40;;;;;;;;;;5043594;28;20769;-81
2021/09/12 00:59:54;;;;;;;9.23;6.10;;;15.30;1.00;;;;;;5040612;28;20198;-80
2021/09/12 01:02:20;;;;;;;8.63;5.90;;;15.50;1.00;;;;;;5001357;28;20226;-81
2021/09/12 01:04:46;;;;;;;9.77;6.57;;;;;;;;;;4985310;28;20304;-81
2021/09/12 01:07:13;;;;;;;9.60;6.20;;;15.60;1.00;;;;;;4985122;28;20198;-81
2021/09/12 01:09:40;;;;;;;8.70;6.20;;;15.50;1.00;;;;;;5001786;28;20227;-81
2021/09/12 01:12:07;;;;;;;11.33;6.17;;;15.50;1.00;;;;;;5001867;28;20226;-81
2021/09/12 01:14:34;;;;;;;9.80;6.10;;;15.60;1.00;;;;;;5001335;28;20198;-81
2021/09/12 01:17:00;;;;;;;9.87;6.03;;;;;;;;;;4987648;28;20234;-81
2021/09/12 01:19:27;;;;;;;7.77;5.63;;;15.70;1.00;;;;;;4987041;28;20210;-80
2021/09/12 01:22:02;;;;;;;9.43;5.67;;;15.80;1.00;;;;;;4983439;28;20220;-80
2021/09/12 01:24:29;;;;;;;10.67;5.90;;;15.70;1.00;;;;;;4984800;28;20188;-80
2021/09/12 01:26:56;;;;;;;13.20;5.87;;;;;;;;;;5001990;28;20195;-81
2021/09/12 01:29:22;;;;;;;10.37;5.53;;;;;;;;;;4984201;28;20174;-81
2021/09/12 01:31:47;;;;;;;7.23;5.23;;;15.70;1.00;;;;;;4992301;28;20223;-81
2021/09/12 01:34:13;;;;;;;6.17;4.83;;;;;;;;;;5014854;28;20204;-81
2021/09/12 01:36:40;;;;;;;10.47;5.33;;;;;;;;;;5028268;28;20188;-80
2021/09/12 01:39:06;;;;;;;9.13;5.37;;;;;;;;;;5024299;28;20265;-81
2021/09/12 01:41:32;;;;;;;8.13;5.50;;;15.80;1.00;;;;;;5023470;28;20195;-81
2021/09/12 01:44:00;;;;;;;7.10;5.13;;;15.80;1.00;;;;;;5023330;28;20255;-81
2021/09/12 01:46:27;;;;;;;8.50;5.47;;;15.80;1.00;;;;;;5024741;28;20659;-81
2021/09/12 01:48:54;;;;;;;8.57;5.70;;;15.90;1.00;;;;;;5020921;28;20631;-81
2021/09/12 01:51:20;;;;;;;9.90;6.90;;;16.00;1.00;;;;;;5041275;28;20212;-81
2021/09/12 01:53:48;;;;;;;10.33;6.80;;;16.00;1.00;;;;;;5040151;28;20273;-81
2021/09/12 01:56:15;;;;;;;10.07;6.20;;;;;;;;;;5046660;28;20290;-81
2021/09/12 01:58:41;;;;;;;11.50;6.27;;;15.90;1.00;;;;;;5040740;28;20197;-81
2021/09/12 02:01:06;;;;;;;9.97;6.23;;;16.00;1.00;;;;;;5031336;28;20190;-81
2021/09/12 02:03:32;;;;;;;11.00;6.40;;;16.00;1.00;;;;;;5027122;28;20214;-81
2021/09/12 02:05:58;;;;;;;10.60;6.03;;;;;;;;;;5038812;28;20208;-80
2021/09/12 02:08:24;;;;;;;9.00;5.43;;;16.10;1.00;;;;;;5037501;28;20246;-81
2021/09/12 02:10:50;;;;;;;9.50;6.07;;;16.10;1.00;;;;;;5039766;28;20595;-81
2021/09/12 02:13:16;;;;;;;9.60;5.70;;;;;;;;;;5029652;28;20681;-81
2021/09/12 02:15:42;;;;;;;9.60;5.77;;;16.10;1.00;;;;;;5039872;28;20545;-81
2021/09/12 02:18:08;;;;;;;9.67;5.93;;;;;;;;;;5031677;28;20197;-81
2021/09/12 02:20:34;;;;;;;8.60;5.23;;;;;;;;;;5020950;28;20189;-81
2021/09/12 02:23:00;;;;;;;8.57;5.87;;;16.30;1.00;;;;;;5040180;28;20196;-80
2021/09/12 02:25:26;;;;;;;10.07;5.43;;;16.10;1.00;;;;;;5019202;28;20193;-81
2021/09/12 02:27:52;;;;;;;8.57;4.87;;;16.10;1.00;;;;;;5015418;28;20188;-81
2021/09/12 02:30:18;;;;;;;9.93;5.30;;;16.10;1.00;;;;;;5021901;28;20678;-81
2021/09/12 02:32:43;;;;;;;10.03;5.27;;;;;;;;;;5040442;28;20271;-81
2021/09/12 02:35:10;;;;;;;6.23;4.73;;;;;;;;;;5034528;28;20209;-81
2021/09/12 02:37:36;;;;;;;8.50;5.70;;;16.20;1.00;;;;;;5023265;28;20274;-82
2021/09/12 02:40:03;;;;;;;7.43;5.17;;;16.30;1.00;;;;;;5037332;28;20266;-80
2021/09/12 02:42:28;;;;;;;11.13;5.63;;;16.30;1.00;;;;;;5040187;28;20237;-81
2021/09/12 02:44:54;;;;;;;10.47;5.30;;;16.30;1.00;;;;;;5020564;28;20193;-81
2021/09/12 02:47:19;;;;;;;12.40;5.70;;;16.30;1.00;;;;;;5019972;28;20229;-81
2021/09/12 02:49:45;;;;;;;7.30;5.00;;;16.30;1.00;;;;;;5033936;28;20245;-81
2021/09/12 02:52:12;;;;;;;6.77;5.20;;;;;;;;;;5021964;28;20225;-81
2021/09/12 02:54:37;;;;;;;9.27;4.70;;;16.30;1.00;;;;;;5037004;28;20198;-81
2021/09/12 02:57:04;;;;;;;8.63;5.60;;;16.30;1.00;;;;;;5018252;28;20581;-81
2021/09/12 02:59:29;;;;;;;9.77;5.87;;;16.30;1.00;;;;;;5033718;28;20657;-81
2021/09/12 03:01:55;;;;;;;8.37;5.27;;;16.30;1.00;;;;;;5026221;28;20225;-81
2021/09/12 03:04:21;;;;;;;9.63;5.17;;;16.30;1.00;;;;;;5036979;28;20582;-81
2021/09/12 03:06:47;;;;;;;10.27;5.70;;;;;;;;;;5019774;28;20201;-81
2021/09/12 03:09:12;;;;;;;9.40;5.27;;;16.30;1.00;;;;;;5040701;28;20785;-81
2021/09/12 03:11:38;;;;;;;10.20;5.57;;;;;;;;;;5039845;28;20236;-81
2021/09/12 03:14:04;;;;;;;9.53;5.30;;;16.20;1.00;;;;;;5037921;28;20198;-81
2021/09/12 03:16:30;;;;;;;10.20;5.73;;;;;;;;;;5020449;28;20206;-81
2021/09/12 03:18:56;;;;;;;8.83;5.27;;;16.10;1.00;;;;;;5031733;28;20190;-81
2021/09/12 03:21:22;;;;;;;8.47;5.70;;;16.10;1.00;;;;;;5020208;28;20316;-81
2021/09/12 03:23:47;;;;;;;11.70;6.47;;;16.10;1.00;;;;;;5034345;28;20198;-80
2021/09/12 03:26:13;;;;;;;10.83;6.70;;;;;;;;;;5036755;28;20197;-82
2021/09/12 03:28:39;;;;;;;13.53;7.77;;;;;;;;;;5008753;28;20221;-81
2021/09/12 03:31:05;;;;;;;11.37;6.23;;;16.10;1.00;;;;;;5019958;28;20195;-81
2021/09/12 03:33:31;;;;;;;10.20;6.33;;;;;;;;;;5037724;28;20222;-81
2021/09/12 03:35:57;;;;;;;11.17;6.23;;;16.10;1.00;;;;;;5023633;28;20193;-81
2021/09/12 03:38:23;;;;;;;9.33;5.90;;;16.00;1.00;;;;;;5034778;28;20671;-81
2021/09/12 03:40:49;;;;;;;10.47;5.30;;;16.00;1.00;;;;;;5039774;28;20200;-81
2021/09/12 03:43:15;;;;;;;8.43;5.20;;;15.90;1.00;;;;;;5038088;28;20197;-81
2021/09/12 03:45:41;;;;;;;9.10;4.97;;;15.90;1.00;;;;;;5021924;28;20193;-81
2021/09/12 03:48:07;;;;;;;11.00;5.63;;;;;;;;;;5019620;28;20213;-81
2021/09/12 03:50:33;;;;;;;7.93;5.23;;;;;;;;;;5020023;28;20187;-81
2021/09/12 03:52:59;;;;;;;11.47;5.80;;;;;;;;;;5037927;28;20338;-81
2021/09/12 03:55:25;;;;;;;7.47;4.73;;;;;;;;;;5038503;28;20186;-81
2021/09/12 03:57:51;;;;;;;12.37;5.07;;;;;;;;;;5035760;28;20228;-81
2021/09/12 04:00:17;;;;;;;9.57;6.00;;;16.00;1.00;;;;;;5033116;28;20256;-81
2021/09/12 04:02:43;;;;;;;7.93;5.23;;;16.00;1.00;;;;;;5017225;28;20213;-81
2021/09/12 04:05:09;;;;;;;10.03;6.03;;;;;;;;;;5032591;28;20235;-81
2021/09/12 04:07:36;;;;;;;15.33;6.17;;;;;;;;;;5028596;28;20214;-81
2021/09/12 04:10:02;;;;;;;8.63;5.47;;;;;;;;;;5024167;28;20211;-81
2021/09/12 04:12:28;;;;;;;9.97;5.30;;;;;;;;;;5039900;28;20219;-81
2021/09/12 04:14:54;;;;;;;12.43;5.70;;;16.10;1.00;;;;;;5021568;28;20532;-81
2021/09/12 04:17:20;;;;;;;9.33;6.10;;;16.00;1.00;;;;;;5035914;28;20181;-81
2021/09/12 04:19:46;;;;;;;8.53;5.80;;;16.00;1.00;;;;;;5034827;28;20250;-81
2021/09/12 04:22:12;;;;;;;11.77;5.93;;;16.00;1.00;;;;;;5020620;28;20269;-81
2021/09/12 04:24:38;;;;;;;9.83;5.70;;;;;;;;;;5020393;28;20348;-81
2021/09/12 04:27:04;;;;;;;9.90;5.50;;;;;;;;;;5030235;28;20208;-81
2021/09/12 04:29:30;;;;;;;9.10;5.60;;;;;;;;;;5039846;28;20399;-81
2021/09/12 04:31:56;;;;;;;9.60;5.70;;;16.00;1.00;;;;;;5020310;28;20247;-81
2021/09/12 04:34:22;;;;;;;8.17;5.20;;;;;;;;;;5031565;28;20188;-81
2021/09/12 04:36:47;;;;;;;7.37;5.47;;;15.90;1.00;;;;;;5025118;28;20589;-81
2021/09/12 04:39:13;;;;;;;10.20;6.10;;;;;;;;;;5038043;28;20246;-81
2021/09/12 04:41:39;;;;;;;9.10;5.60;;;15.80;1.00;;;;;;5038289;28;20190;-81
2021/09/12 04:44:05;;;;;;;8.87;5.73;;;;;;;;;;5038988;28;20195;-81
2021/09/12 04:46:31;;;;;;;9.27;5.90;;;15.70;1.00;;;;;;5020147;28;20232;-82
2021/09/12 04:48:57;;;;;;;9.60;5.87;;;15.70;1.00;;;;;;5031941;28;20202;-82
2021/09/12 04:51:23;;;;;;;7.90;5.37;;;15.60;1.00;;;;;;5036453;28;20228;-81
2021/09/12 04:53:49;;;;;;;9.70;5.97;;;;;;;;;;5033853;28;20216;-82
2021/09/12 04:56:15;;;;;;;7.30;5.53;;;;;;;;;;5036565;28;20189;-81
2021/09/12 04:58:42;;;;;;;8.97;5.97;;;;;;;;;;5037573;28;20187;-81
2021/09/12 05:01:07;;;;;;;8.53;5.50;;;15.40;1.00;;;;;;5036372;28;20300;-82
2021/09/12 05:03:33;;;;;;;8.57;5.70;;;15.40;1.00;;;;;;5028791;28;20270;-81
2021/09/12 05:05:59;;;;;;;9.70;5.80;;;;;;;;;;5026530;28;20203;-82
2021/09/12 05:08:25;;;;;;;10.63;5.80;;;;;;;;;;5033101;28;20227;-82
2021/09/12 05:10:51;;;;;;;7.67;5.70;;;;;;;;;;5022043;28;20580;-81
2021/09/12 05:13:16;;;;;;;11.20;6.10;;;15.30;1.00;;;;;;5037477;28;20208;-82
2021/09/12 05:15:43;;;;;;;9.97;5.87;;;;;;;;;;5038276;28;20560;-82
2021/09/12 05:18:12;;;;;;;9.70;5.43;;;15.20;1.00;;;;;;5036151;28;20197;-81
2021/09/12 05:20:39;;;;;;;10.43;6.33;;;15.20;1.00;;;;;;5023056;28;20204;-81
2021/09/12 05:23:05;;;;;;;12.30;5.87;;;;;;;;;;5042344;28;20248;-82
2021/09/12 05:25:32;;;;;;;8.60;6.07;;;15.10;1.00;;;;;;5041804;28;20208;-82
2021/09/12 05:27:58;;;;;;;10.90;5.53;;;;;;;;;;5038956;28;20198;-82
2021/09/12 05:30:24;;;;;;;9.67;5.70;;;;;;;;;;5039006;28;20201;-81
2021/09/12 05:32:50;;;;;;;9.43;6.50;;;15.10;1.00;;;;;;5038193;28;20669;-82
2021/09/12 05:35:17;;;;;;;7.87;5.60;;;15.00;1.00;;;;;;5013022;28;20339;-82
2021/09/12 05:37:44;;;;;;;9.13;5.60;;;14.90;1.00;;;;;;5018512;28;20190;-82
2021/09/12 05:40:11;;;;;;;10.60;6.80;;;;;;;;;;5044569;28;20209;-81
2021/09/12 05:42:37;;;;;;;8.23;5.60;;;14.90;1.00;;;;;;5039383;28;20208;-81
2021/09/12 05:45:04;;;;;;;13.00;6.20;;;14.90;1.00;;;;;;5022278;28;20190;-82
2021/09/12 05:47:30;;;;;;;7.20;5.57;;;14.90;1.00;;;;;;5023014;28;20191;-82
2021/09/12 05:49:55;;;;;;;8.17;5.90;;;14.90;1.00;;;;;;5020369;28;20197;-81
2021/09/12 05:52:23;;;;;;;11.60;6.30;;;;;;;;;;5040079;28;20220;-81
2021/09/12 05:54:48;;;;;;;9.10;6.00;;;14.90;1.00;;;;;;5040120;28;20276;-81
2021/09/12 05:57:14;;;;;;;8.97;5.47;;;;;;;;;;5037721;28;20329;-82
2021/09/12 05:59:40;;;;;;;9.03;6.00;;;;;;;;;;5040611;28;20184;-82
2021/09/12 06:02:07;;;;;;;7.60;5.73;;;;;;;;;;5022560;28;20289;-82
2021/09/12 06:04:32;;;;;;;9.40;6.30;;;15.20;1.00;;;;;;5031042;28;20215;-82
2021/09/12 06:06:58;;;;;;;7.93;5.30;;;15.20;1.00;;;;;;5023245;28;20562;-82
2021/09/12 06:09:24;;;;;;;8.87;6.17;;;;;;;;;;5027728;28;20296;-82
2021/09/12 06:11:51;;;;;;;13.67;6.63;;;15.50;1.00;;;;;;5043579;28;20715;-81
2021/09/12 06:14:18;;;;;;;9.03;6.20;;;;;;;;;;5025979;28;20194;-82
2021/09/12 06:16:43;;;;;;;9.00;5.87;;;15.50;1.00;;;;;;5042193;28;20335;-82
2021/09/12 06:19:09;;;;;;;7.90;5.77;;;15.60;1.00;;;;;;5044819;28;20219;-81
2021/09/12 06:21:35;;;;;;;7.57;5.60;;;15.70;1.00;;;;;;5023692;28;20186;-82
2021/09/12 06:24:00;;;;;;;8.20;5.77;;;15.70;1.00;;;;;;5017651;28;20200;-82
2021/09/12 06:26:26;;;;;;;9.23;6.30;;;15.90;1.00;;;;;;5022846;28;20197;-81
2021/09/12 06:28:52;;;;;;;9.00;6.20;;;16.00;1.00;;;;;;5018928;28;20188;-82
2021/09/12 06:31:19;;;;;;;9.60;5.90;;;;;;;;;;5036416;28;20222;-81
2021/09/12 06:33:44;;;;;;;10.40;6.40;;;16.20;1.00;;;;;;5038212;28;20194;-82
2021/09/12 06:36:10;;;;;;;13.83;6.73;;;16.20;1.00;;;;;;5029140;28;20272;-81
2021/09/12 06:38:36;;;;;;;9.53;6.03;;;16.20;1.00;;;;;;5022915;28;20295;-82
2021/09/12 06:41:01;;;;;;;7.13;5.67;;;16.20;1.00;;;;;;5023808;28;20217;-81
2021/09/12 06:43:27;;;;;;;8.50;5.77;;;16.20;1.00;;;;;;5041503;28;20206;-81
2021/09/12 06:45:53;;;;;;;13.10;8.07;;;;;;;;;;5023027;28;20204;-81
2021/09/12 06:48:20;;;;;;;10.00;5.90;;;;;;;;;;5019627;28;20566;-81
2021/09/12 06:50:45;;;;;;;8.93;5.50;;;16.50;1.00;;;;;;5031553;28;20240;-81
2021/09/12 06:53:12;;;;;;;8.50;5.30;;;16.50;1.00;;;;;;5014694;28;20229;-82
2021/09/12 06:55:39;;;;;;;11.47;5.73;;;16.60;1.00;;;;;;5025837;28;20645;-84
2021/09/12 06:58:04;;;;;;;9.83;5.17;;;16.60;1.00;;;;;;5021364;28;20342;-86
2021/09/12 07:00:31;;;;;;;8.83;5.50;;;16.70;1.00;;;;;;5018353;28;20229;-87
2021/09/12 07:02:57;;;;;;;9.67;5.37;;;16.70;1.00;;;;;;5035281;28;20237;-86
2021/09/12 07:05:23;;;;;;;7.33;4.80;;;;;;;;;;5011717;28;20219;-85
2021/09/12 07:07:49;;;;;;;7.57;5.30;;;16.90;1.00;;;;;;5030611;28;20189;-84
2021/09/12 07:10:18;;;;;;;8.70;4.97;;;17.00;1.00;;;;;;5018074;28;20212;-84
2021/09/12 07:12:44;;;;;;;7.30;5.17;;;17.20;1.00;;;;;;5042140;28;20227;-86
2021/09/12 07:15:10;;;;;;;5.47;3.83;;;;;;;;;;5034761;28;20189;-85
2021/09/12 07:17:36;;;;;;;6.97;4.53;;;17.40;1.00;;;;;;5035221;28;20191;-85
2021/09/12 07:20:02;;;;;;;6.70;4.37;;;;;;;;;;5012676;28;20171;-84
2021/09/12 07:22:28;;;;;;;8.73;5.00;;;17.50;1.00;;;;;;5029432;28;20192;-86
2021/09/12 07:24:54;;;;;;;7.80;4.43;;;;;;;;;;5003419;28;20206;-88
2021/09/12 07:27:19;;;;;;;6.10;4.47;;;17.50;1.00;;;;;;5026509;28;20207;-84
2021/09/12 07:29:45;;;;;;;6.93;4.47;;;17.60;1.00;;;;;;5028197;28;20643;-84
2021/09/12 07:32:11;;;;;;;7.90;4.13;;;17.60;1.00;;;;;;5033915;28;20215;-82
2021/09/12 07:34:37;;;;;;;9.63;5.70;;;;;;;;;;5032558;28;20273;-83
2021/09/12 07:37:03;;;;;;;6.80;4.50;;;17.80;1.00;;;;;;5036891;28;20200;-81
2021/09/12 07:39:29;;;;;;;6.80;4.37;;;;;;;;;;5012531;28;20188;-85
2021/09/12 07:41:54;;;;;;;6.53;4.77;;;18.00;1.00;;;;;;5037016;28;20229;-86
2021/09/12 07:44:20;;;;;;;8.17;5.37;;;18.00;1.00;;;;;;5031253;28;20246;-84
2021/09/12 07:46:46;;;;;;;7.30;5.03;;;;;;;;;;5033766;28;20196;-83
2021/09/12 07:49:12;;;;;;;7.60;4.70;;;;;;;;;;5024498;28;20250;-86
2021/09/12 07:51:37;;;;;;;6.17;4.53;;;18.20;1.00;;;;;;5037052;28;20283;-84
2021/09/12 07:54:04;;;;;;;6.63;4.40;;;;;;;;;;5028715;28;20354;-82
2021/09/12 07:56:29;;;;;;;6.17;4.80;;;18.50;1.00;;;;;;5025532;28;20256;-83
2021/09/12 07:58:55;;;;;;;9.07;5.50;;;18.60;1.00;;;;;;5017542;28;20213;-85
2021/09/12 08:01:20;;;;;;;7.13;4.83;;;18.60;1.00;;;;;;5018114;28;20657;-84
2021/09/12 08:03:46;;;;;;;7.37;4.70;;;18.90;1.00;;;;;;5034175;28;20284;-84
2021/09/12 08:06:11;;;;;;;7.03;4.57;;;18.80;1.00;;;;;;5018590;28;20226;-84
2021/09/12 08:08:37;;;;;;;7.40;4.60;;;;;;;;;;5018463;28;20201;-81
2021/09/12 08:11:03;;;;;;;6.37;4.20;;;18.80;1.00;;;;;;5028753;28;20205;-84
2021/09/12 08:13:29;;;;;;;9.10;4.27;;;18.90;1.00;;;;;;5033756;28;20213;-85
2021/09/12 08:15:54;;;;;;;8.97;5.57;;;19.00;1.00;;;;;;5016212;28;20190;-88
2021/09/12 08:18:22;;;;;;;7.30;4.60;;;;;;;;;;5016477;28;20562;-85
2021/09/12 08:20:48;;;;;;;8.17;4.73;;;;;;;;;;5007117;28;20203;-85
2021/09/12 08:23:14;;;;;;;7.03;4.50;;;19.10;1.00;;;;;;5029171;28;20573;-85
2021/09/12 08:25:39;;;;;;;7.77;4.30;;;19.10;1.00;;;;;;5019486;28;20271;-84
2021/09/12 08:28:05;;;;;;;6.87;4.23;;;19.20;1.00;;;;;;5021390;28;20246;-82
2021/09/12 08:30:31;;;;;;;7.73;4.70;;;19.30;1.00;;;;;;5036532;28;20221;-82
2021/09/12 08:32:57;;;;;;;5.00;3.60;;;19.40;1.00;;;;;;5018363;28;20214;-85
2021/09/12 08:35:23;;;;;;;5.43;3.90;;;;;;;;;;5016055;28;20210;-81
2021/09/12 08:37:49;;;;;;;5.77;3.67;;;;;;;;;;5014932;28;20188;-82
2021/09/12 08:40:15;;;;;;;5.37;3.40;;;19.80;1.00;;;;;;5012297;28;20254;-83
2021/09/12 08:42:45;;;;;;;5.40;3.83;;;20.00;1.00;;;;;;5034896;28;20280;-83
2021/09/12 08:45:11;;;;;;;7.53;4.00;;;;;;;;;;5032620;28;20650;-83
2021/09/12 08:47:37;;;;;;;5.47;3.27;;;;;;;;;;5016581;28;20191;-85
2021/09/12 08:50:03;;;;;;;6.70;3.57;;;19.90;1.00;;;;;;5020282;28;20637;-85
2021/09/12 08:52:29;;;;;;;5.60;3.60;;;19.90;1.00;;;;;;5039334;28;20232;-86
2021/09/12 08:54:55;;;;;;;6.80;3.37;;;20.10;1.00;;;;;;5014216;28;20217;-86
2021/09/12 08:57:21;;;;;;;5.00;2.83;;;20.20;1.00;;;;;;5015974;28;20203;-85
2021/09/12 08:59:50;;;;;;;7.20;3.20;;;20.30;1.00;;;;;;5038941;28;20196;-85
2021/09/12 09:02:17;;;;;;;7.00;3.53;;;;;;;;;;5020132;28;20187;-85
2021/09/12 09:04:43;;;;;;;4.17;3.00;;;;;;;;;;5015328;28;20687;-85
2021/09/12 09:07:11;;;;;;;5.33;3.13;;;20.60;1.00;;;;;;5029910;28;20227;-85
2021/09/12 09:09:40;;;;;;;7.00;3.70;;;20.60;1.00;;;;;;5021563;28;20212;-85
2021/09/12 09:12:34;;;;;;;6.50;3.53;;;20.60;1.00;;;;;;5022922;28;20216;-85
2021/09/12 09:15:09;;;;;;;5.27;3.13;;;20.70;1.00;;;;;;5032061;28;20193;-85
2021/09/12 09:17:40;;;;;;;4.93;3.30;;;20.60;1.00;;;;;;5022315;28;20193;-85
2021/09/12 09:20:08;;;;;;;6.53;3.67;;;20.70;1.00;;;;;;5021216;28;20619;-85
2021/09/12 09:22:39;;;;;;;4.70;2.90;;;20.80;1.00;;;;;;5002970;28;20278;-85
2021/09/12 09:25:10;;;;;;;5.27;3.33;;;20.90;1.00;;;;;;5011379;28;20573;-85
2021/09/12 09:28:03;;;;;;;6.83;3.20;;;20.80;1.00;;;;;;5039958;28;20195;-85
2021/09/12 09:30:51;;;;;;;6.17;2.87;;;20.80;1.00;;;;;;5050538;28;20196;-85
2021/09/12 09:33:22;;;;;;;5.50;3.60;;;20.90;1.00;;;;;;5022463;28;20252;-85
2021/09/12 09:36:04;;;;;;;4.30;2.70;;;21.10;1.00;;;;;;5023487;28;20285;-85
2021/09/12 09:38:35;;;;;;;6.00;3.47;;;21.10;1.00;;;;;;5020487;28;20645;-85
2021/09/12 09:41:08;;;;;;;5.87;3.13;;;21.10;1.00;;;;;;5005113;28;20645;-85
2021/09/12 09:43:47;;;;;;;5.33;3.50;;;21.10;1.00;;;;;;5022845;28;20178;-85
2021/09/12 09:46:27;;;;;;;5.73;3.37;;;21.20;1.00;;;;;;5039919;28;20193;-85
2021/09/12 09:48:53;;;;;;;5.80;3.47;;;21.20;1.00;;;;;;5014605;28;20253;-86
2021/09/12 09:51:19;;;;;;;4.53;2.90;;;;;;;;;;5036282;28;20187;-85
2021/09/12 09:53:45;;;;;;;5.83;3.07;;;;;;;;;;5022533;28;20228;-85
2021/09/12 09:56:11;;;;;;;6.23;2.70;;;21.50;1.00;;;;;;5021413;28;20315;-85
2021/09/12 09:58:37;;;;;;;4.37;2.57;;;21.40;1.00;;;;;;5024126;28;20181;-85
2021/09/12 10:01:03;;;;;;;5.93;3.00;;;21.30;1.00;;;;;;5037963;28;20709;-85
2021/09/12 10:03:30;;;;;;;6.03;3.00;;;21.60;1.00;;;;;;5022684;28;20259;-85
2021/09/12 10:05:56;;;;;;;4.67;2.80;;;;;;;;;;5010207;28;20288;-86
2021/09/12 10:08:25;;;;;;;6.53;3.00;;;21.70;1.00;;;;;;5014049;28;20771;-85
2021/09/12 10:10:52;;;;;;;4.73;2.50;;;21.70;1.00;;;;;;5021160;28;20590;-85
2021/09/12 10:13:21;;;;;;;4.67;2.57;;;21.80;1.00;;;;;;5022777;28;20210;-85
2021/09/12 10:15:51;;;;;;;5.93;2.47;;;21.80;1.00;;;;;;5039280;28;20201;-85
2021/09/12 10:18:29;;;;;;;4.27;2.33;;;21.80;1.00;;;;;;5008725;28;20248;-87
2021/09/12 10:20:55;;;;;;;4.13;2.47;;;;;;;;;;5004842;28;20193;-85
2021/09/12 10:23:26;;;;;;;2.93;2.07;;;21.70;1.00;;;;;;5033280;28;20201;-86
2021/09/12 10:26:01;;;;;;;4.00;2.53;;;21.80;1.00;;;;;;5035295;28;20194;-84
2021/09/12 10:28:31;;;;;;;4.53;2.50;;;22.00;1.00;;;;;;5030022;28;20185;-86
2021/09/12 10:30:58;;;;;;;6.63;2.67;;;22.20;1.00;;;;;;5021628;28;20212;-86
2021/09/12 10:33:26;;;;;;;4.70;2.80;;;22.20;1.00;;;;;;5038081;28;20216;-86
2021/09/12 10:35:52;;;;;;;4.57;2.43;;;;;;;;;;5022384;28;20193;-85
2021/09/12 10:38:39;;;;;;;4.03;2.43;;;22.20;1.00;;;;;;5022101;28;20184;-86
2021/09/12 10:41:04;;;;;;;4.30;2.40;;;22.20;1.00;;;;;;5032503;28;20297;-86
2021/09/12 10:43:30;;;;;;;3.50;2.20;;;22.20;1.00;;;;;;5034368;28;20207;-85
2021/09/12 10:46:02;;;;;;;4.33;2.10;;;22.30;1.00;;;;;;5034534;28;20197;-85
2021/09/12 10:48:36;;;;;;;5.07;2.17;;;22.50;1.00;;;;;;5029948;28;20192;-83
2021/09/12 10:51:04;;;;;;;5.13;2.63;;;22.40;1.00;;;;;;5038526;28;20190;-84
2021/09/12 10:53:45;;;;;;;4.67;2.60;;;22.60;1.00;;;;;;5025415;28;20228;-83
2021/09/12 10:56:12;;;;;;;4.80;2.73;;;22.60;1.00;;;;;;5014153;28;20187;-84
2021/09/12 10:58:38;;;;;;;4.97;2.30;;;22.70;1.00;;;;;;5027624;28;20191;-85
2021/09/12 11:01:06;;;;;;;3.30;2.13;;;22.70;1.00;;;;;;5039440;28;20182;-83
2021/09/12 11:03:34;;;;;;;3.70;2.27;;;23.10;1.00;;;;;;5030247;28;20211;-81
2021/09/12 11:06:00;;;;;;;4.27;2.63;;;23.10;1.00;;;;;;5037651;28;20180;-84
2021/09/12 11:16:54;;;;;;;1.50;1.40;;;23.60;1.00;;;;;;5143227;27;20317;-81
2021/09/12 11:19:20;;;;;;;1.53;1.43;;;23.70;1.00;;;;;;5115707;28;20194;-83
2021/09/12 11:21:51;;;;;;;1.30;1.20;;;23.80;1.00;;;;;;5108135;28;20204;-82
2021/09/12 11:24:27;;;;;;;1.98;1.60;;;24.10;1.00;;;;;;5107484;28;20644;-82
2021/09/12 11:27:04;;;;;;;2.50;1.60;;;24.40;1.00;;;;;;5106264;28;20180;-83
2021/09/12 11:29:35;;;;;;;2.75;1.70;;;24.40;1.00;;;;;;5123753;28;20190;-84
2021/09/12 11:32:03;;;;;;;2.50;2.00;;;24.50;1.00;;;;;;5111707;28;20197;-87
2021/09/12 11:34:30;;;;;;;2.00;1.85;;;24.80;1.00;;;;;;5101015;28;20192;-84
2021/09/12 11:36:57;;;;;;;1.70;1.60;;;25.30;1.00;;;;;;5105875;28;20271;-86
2021/09/12 11:39:30;;;;;;;1.80;1.40;;;26.30;1.00;;;;;;5105393;28;20183;-85
2021/09/12 11:41:58;;;;;;;1.67;1.58;;;26.80;1.00;;;;;;5112539;28;20203;-86
2021/09/12 11:44:47;;;;;;;1.45;1.35;;;27.30;1.00;;;;;;5104730;28;20525;-84
2021/09/12 11:47:21;;;;;;;1.52;1.42;;;28.20;1.00;;;;;;5101740;28;20192;-84
2021/09/12 11:50:04;;;;;;;1.55;1.38;;;28.60;1.00;;;;;;5105940;28;20734;-85
2021/09/12 11:52:39;;;;;;;1.90;1.40;;;29.30;1.00;;;;;;5101233;28;20187;-86
2021/09/12 11:55:26;;;;;;;2.95;2.05;;;31.20;1.00;;;;;;5110356;28;20695;-88
2021/09/12 11:58:07;;;;;;;2.03;1.92;;;31.20;1.00;;;;;;5106788;28;20249;-84
2021/09/12 12:00:43;;;;;;;1.83;1.63;;;30.80;1.00;;;;;;5105069;28;20188;-85
2021/09/12 12:03:14;;;;;;;1.67;1.58;;;29.70;1.00;;;;;;5108411;28;20247;-86
2021/09/12 12:05:42;;;;;;;1.77;1.67;;;29.70;1.00;;;;;;5088513;28;20215;-89
2021/09/12 12:08:13;;;;;;;1.70;1.60;;;28.90;1.00;;;;;;5087477;28;20190;-84
2021/09/12 12:10:40;;;;;;;1.73;1.63;;;28.60;1.00;;;;;;5084146;28;20684;-85
2021/09/12 12:13:06;;;;;;;2.05;1.90;;;29.50;1.00;;;;;;5086242;28;20208;-85
2021/09/12 12:15:34;;;;;;;1.70;1.60;;;29.60;1.00;;;;;;5086877;28;20218;-83
2021/09/12 12:18:00;;;;;;;1.80;1.70;;;29.60;1.00;;;;;;5088294;28;20264;-85
2021/09/12 12:20:35;;;;;;;1.92;1.60;;;29.90;1.00;;;;;;5088411;28;20594;-84
2021/09/12 12:23:24;;;;;;;1.95;1.75;;;30.60;1.00;;;;;;5087667;28;20181;-86
2021/09/12 12:25:51;;;;;;;2.60;1.83;;;30.40;1.00;;;;;;5083440;28;20619;-84
2021/09/12 12:28:26;;;;;;;1.33;1.25;;;31.00;1.00;;;;;;5072508;28;20252;-86
2021/09/12 12:31:09;;;;;;;3.53;1.40;;;31.50;1.00;;;;;;5075090;28;20843;-84
2021/09/12 12:33:36;;;;;;;1.50;1.40;;;32.40;1.00;;;;;;5078748;28;20198;-87
2021/09/12 12:36:10;;;;;;;1.42;1.33;;;33.40;1.00;;;;;;5071747;28;20202;-85
2021/09/12 12:38:37;;;;;;;2.17;1.73;;;33.60;1.00;;;;;;5080035;28;20177;-85
2021/09/12 12:41:08;;;;;;;1.50;1.40;;;34.30;1.00;;;;;;5074479;28;20221;-86
2021/09/12 12:43:34;;;;;;;1.70;1.52;;;34.70;1.00;;;;;;5067179;28;20191;-84
2021/09/12 12:46:00;;;;;;;2.08;1.70;;;34.80;1.00;;;;;;5076367;28;20290;-87
2021/09/12 12:48:26;;;;;;;1.67;1.17;;;33.30;1.00;;;;;;5075660;28;20280;-86
2021/09/12 12:50:53;;;;;;;1.60;1.50;;;;;;;;;;5075522;28;20661;-86
2021/09/12 12:53:37;;;;;;;1.70;1.60;;;32.40;1.00;;;;;;5078909;28;20273;-87
2021/09/12 12:56:05;;;;;;;2.08;1.88;;;31.60;1.00;;;;;;5077943;28;20201;-88
2021/09/12 12:58:35;;;;;;;1.45;1.35;;;29.80;1.00;;;;;;5075692;28;20192;-86
2021/09/12 13:01:03;;;;;;;1.80;1.50;;;28.70;1.00;;;;;;5068809;28;20190;-85
2021/09/12 13:03:29;;;;;;;1.58;1.42;;;29.30;1.00;;;;;;5062418;28;20363;-85
2021/09/12 13:05:56;;;;;;;1.60;1.45;;;29.50;1.00;;;;;;5060174;28;20197;-85
2021/09/12 13:08:25;;;;;;;3.55;1.20;;;30.70;1.00;;;;;;5068708;28;20191;-84
2021/09/12 13:10:51;;;;;;;1.20;1.10;;;31.90;1.00;;;;;;5072097;28;20213;-85
2021/09/12 13:13:17;;;;;;;4.03;1.25;;;32.50;1.00;;;;;;5075991;28;20657;-82
2021/09/12 13:15:44;;;;;;;2.15;1.30;;;32.20;1.00;;;;;;5072450;28;20214;-83
2021/09/12 13:18:11;;;;;;;1.85;1.40;;;33.00;1.00;;;;;;5073192;28;20177;-84
2021/09/12 13:20:37;;;;;;;3.00;1.50;;;33.40;1.00;;;;;;5076009;28;20569;-84
2021/09/12 13:23:04;;;;;;;1.85;1.30;;;33.10;1.00;;;;;;5068617;28;20183;-87
2021/09/12 13:25:30;;;;;;;2.53;1.27;;;32.90;1.00;;;;;;5068004;28;20281;-87
2021/09/12 13:27:56;;;;;;;1.92;1.40;;;33.20;1.00;;;;;;5069741;28;20209;-86
2021/09/12 13:30:23;;;;;;;1.40;1.30;;;32.80;1.00;;;;;;5063149;28;20208;-84
2021/09/12 13:32:49;;;;;;;2.03;1.30;;;32.20;1.00;;;;;;5071427;28;20208;-89